createdAt,value
2022-11-21T00:01:01.551Z,1.52
2022-11-21T00:03:28.426Z,1.40
2022-11-21T00:05:55.232Z,2.08
2022-11-21T00:08:22.262Z,1.90
2022-11-21T00:10:49.113Z,1.63
2022-11-21T00:13:19.219Z,1.45
2022-11-21T00:15:46.601Z,1.48
2022-11-21T00:18:13.704Z,1.23
2022-11-21T00:20:41.180Z,1.38
2022-11-21T00:23:08.424Z,1.55
2022-11-21T00:25:35.340Z,1.60
2022-11-21T00:28:02.082Z,1.88
2022-11-21T00:30:28.919Z,3.00
2022-11-21T00:32:55.702Z,2.40
2022-11-21T00:35:22.468Z,1.70
2022-11-21T00:37:50.848Z,2.47
2022-11-21T00:40:18.237Z,2.30
2022-11-21T00:42:45.039Z,1.77
2022-11-21T00:45:12.201Z,1.80
2022-11-21T00:47:39.011Z,2.45
2022-11-21T00:50:06.038Z,2.10
2022-11-21T00:52:33.334Z,2.15
2022-11-21T00:55:00.103Z,1.50
2022-11-21T00:57:26.866Z,1.90
2022-11-21T00:59:53.685Z,1.90
2022-11-21T01:02:20.486Z,1.88
2022-11-21T01:04:47.216Z,1.65
2022-11-21T01:07:14.842Z,1.48
2022-11-21T01:09:41.663Z,2.15
2022-11-21T01:12:08.442Z,1.55
2022-11-21T01:14:35.254Z,1.40
2022-11-21T01:17:02.062Z,1.13
2022-11-21T01:19:28.834Z,1.33
2022-11-21T01:21:55.635Z,1.38
2022-11-21T01:24:22.410Z,1.23
2022-11-21T01:26:51.040Z,1.23
2022-11-21T01:29:17.961Z,1.42
2022-11-21T01:31:44.791Z,1.60
2022-11-21T01:34:11.603Z,1.60
2022-11-21T01:36:38.449Z,1.20
2022-11-21T01:39:06.129Z,1.33
2022-11-21T01:41:40.007Z,1.60
2022-11-21T01:44:27.315Z,1.60
2022-11-21T01:46:54.401Z,1.48
2022-11-21T01:49:26.380Z,1.92
2022-11-21T01:51:53.081Z,2.10
2022-11-21T01:54:24.481Z,1.60
2022-11-21T01:57:03.430Z,1.60
2022-11-21T01:59:32.963Z,1.58
2022-11-21T02:02:02.273Z,1.70
2022-11-21T02:04:31.031Z,1.50
2022-11-21T02:06:59.169Z,2.08
2022-11-21T02:09:26.229Z,1.50
2022-11-21T02:11:55.815Z,1.33
2022-11-21T02:14:22.746Z,1.88
2022-11-21T02:16:49.774Z,1.60
2022-11-21T02:19:25.848Z,1.95
2022-11-21T02:22:00.983Z,1.65
2022-11-21T02:24:39.053Z,1.60
2022-11-21T02:27:05.846Z,1.48
2022-11-21T02:29:32.602Z,1.42
2022-11-21T02:32:00.053Z,1.70
2022-11-21T02:34:26.995Z,2.42
2022-11-21T02:36:53.863Z,2.22
2022-11-21T02:39:32.525Z,1.60
2022-11-21T02:42:28.442Z,1.92
2022-11-21T02:45:02.059Z,1.67
2022-11-21T02:47:29.201Z,1.83
2022-11-21T02:50:16.253Z,1.40
2022-11-21T02:52:43.048Z,1.70
2022-11-21T02:55:11.681Z,1.85
2022-11-21T02:57:39.501Z,1.70
2022-11-21T03:00:06.669Z,1.35
2022-11-21T03:02:33.469Z,1.50
2022-11-21T03:05:00.550Z,1.77
2022-11-21T03:07:27.337Z,1.90
2022-11-21T03:09:54.171Z,1.60
2022-11-21T03:12:20.994Z,1.45
2022-11-21T03:14:47.854Z,1.20
2022-11-21T03:17:14.697Z,1.65
2022-11-21T03:19:41.466Z,1.58
2022-11-21T03:22:08.507Z,1.50
2022-11-21T03:24:35.356Z,1.60
2022-11-21T03:27:02.161Z,1.77
2022-11-21T03:29:28.984Z,1.65
2022-11-21T03:31:55.741Z,1.80
2022-11-21T03:34:22.562Z,2.00
2022-11-21T03:36:49.324Z,2.00
2022-11-21T03:39:16.118Z,1.73
2022-11-21T03:41:42.901Z,1.95
2022-11-21T03:44:10.738Z,1.70
2022-11-21T03:46:38.843Z,1.67
2022-11-21T03:49:06.209Z,1.42
2022-11-21T03:51:33.373Z,1.63
2022-11-21T03:54:00.519Z,1.70
2022-11-21T03:56:27.985Z,1.73
2022-11-21T03:58:54.786Z,2.00
2022-11-21T04:01:21.938Z,1.88
2022-11-21T04:03:49.305Z,1.95
2022-11-21T04:06:17.046Z,1.67
2022-11-21T04:08:43.910Z,1.95
2022-11-21T04:11:10.821Z,2.13
2022-11-21T04:13:38.028Z,1.73
2022-11-21T04:16:05.132Z,2.00
2022-11-21T04:18:32.076Z,2.08
2022-11-21T04:20:59.729Z,1.83
2022-11-21T04:23:26.857Z,1.60
2022-11-21T04:25:53.955Z,1.83
2022-11-21T04:28:21.284Z,1.90
2022-11-21T04:30:48.282Z,1.90
2022-11-21T04:33:16.130Z,2.10
2022-11-21T04:35:43.519Z,2.25
2022-11-21T04:38:10.484Z,1.88
2022-11-21T04:40:37.533Z,1.88
2022-11-21T04:43:04.376Z,1.35
2022-11-21T04:45:31.300Z,1.70
2022-11-21T04:47:58.184Z,1.42
2022-11-21T04:50:24.977Z,2.10
2022-11-21T04:52:51.776Z,1.48
2022-11-21T04:55:18.840Z,2.05
2022-11-21T04:57:45.767Z,2.10
2022-11-21T05:00:13.425Z,2.00
2022-11-21T05:02:40.208Z,1.85
2022-11-21T05:05:07.133Z,1.75
2022-11-21T05:07:33.964Z,1.60
2022-11-21T05:10:01.212Z,1.95
2022-11-21T05:12:46.826Z,1.88
2022-11-21T05:15:13.633Z,1.70
2022-11-21T05:17:40.422Z,1.90
2022-11-21T05:20:07.444Z,2.03
2022-11-21T05:22:34.240Z,1.75
2022-11-21T05:25:00.997Z,2.05
2022-11-21T05:27:27.740Z,1.90
2022-11-21T05:29:55.535Z,1.98
2022-11-21T05:32:22.343Z,2.03
2022-11-21T05:34:49.093Z,1.90
2022-11-21T05:37:15.886Z,2.10
2022-11-21T05:39:42.656Z,1.90
2022-11-21T05:42:09.476Z,1.73
2022-11-21T05:44:36.260Z,1.83
2022-11-21T05:47:03.022Z,1.58
2022-11-21T05:49:29.764Z,1.65
2022-11-21T05:51:56.573Z,1.73
2022-11-21T05:54:23.335Z,1.90
2022-11-21T05:56:50.114Z,1.80
2022-11-21T05:59:16.873Z,1.42
2022-11-21T06:02:02.558Z,1.73
2022-11-21T06:04:29.665Z,1.88
2022-11-21T06:06:56.671Z,1.80
2022-11-21T06:09:23.416Z,1.98
2022-11-21T06:11:50.593Z,1.70
2022-11-21T06:14:17.405Z,1.65
2022-11-21T06:16:44.170Z,1.88
2022-11-21T06:19:10.964Z,2.35
2022-11-21T06:21:37.829Z,1.88
2022-11-21T06:24:05.643Z,2.20
2022-11-21T06:26:32.440Z,2.15
2022-11-21T06:28:59.289Z,1.65
2022-11-21T06:31:27.356Z,1.83
2022-11-21T06:33:58.144Z,1.63
2022-11-21T06:36:25.243Z,1.75
2022-11-21T06:38:53.318Z,1.80
2022-11-21T06:41:23.020Z,1.90
2022-11-21T06:43:49.803Z,2.05
2022-11-21T06:46:16.630Z,2.17
2022-11-21T06:48:43.813Z,1.95
2022-11-21T06:51:17.919Z,1.90
2022-11-21T06:53:44.931Z,2.30
2022-11-21T06:56:11.669Z,2.22
2022-11-21T06:58:38.412Z,2.33
2022-11-21T07:01:06.929Z,1.98
2022-11-21T07:03:34.169Z,2.50
2022-11-21T07:06:04.201Z,2.08
2022-11-21T07:08:32.325Z,2.08
2022-11-21T07:13:53.524Z,2.03
2022-11-21T07:16:20.328Z,2.33
2022-11-21T07:18:47.147Z,1.90
2022-11-21T07:21:14.003Z,2.30
2022-11-21T07:23:40.847Z,2.15
2022-11-21T07:26:08.060Z,2.42
2022-11-21T07:28:35.029Z,2.08
2022-11-21T07:31:07.133Z,2.35
2022-11-21T07:33:40.061Z,1.80
2022-11-21T07:36:07.366Z,2.15
2022-11-21T07:38:34.220Z,2.53
2022-11-21T07:41:01.129Z,2.17
2022-11-21T07:43:27.873Z,2.38
2022-11-21T07:45:54.695Z,2.03
2022-11-21T07:48:21.488Z,2.33
2022-11-21T07:50:48.288Z,1.48
2022-11-21T07:53:15.057Z,1.77
2022-11-21T07:55:42.574Z,1.90
2022-11-21T07:58:10.742Z,2.10
2022-11-21T08:00:38.599Z,2.35
2022-11-21T08:03:06.995Z,1.90
2022-11-21T08:05:37.742Z,1.67
2022-11-21T08:08:05.667Z,2.00
2022-11-21T08:10:32.693Z,2.28
2022-11-21T08:12:59.437Z,2.30
2022-11-21T08:15:26.268Z,2.00
2022-11-21T08:17:53.318Z,1.98
2022-11-21T08:20:20.189Z,1.83
2022-11-21T08:22:47.193Z,1.90
2022-11-21T08:25:14.130Z,2.00
2022-11-21T08:27:42.188Z,1.88
2022-11-21T08:30:09.847Z,1.50
2022-11-21T08:32:36.644Z,1.85
2022-11-21T08:35:03.741Z,1.85
2022-11-21T08:37:31.062Z,1.73
2022-11-21T08:40:00.969Z,1.65
2022-11-21T08:42:27.957Z,1.90
2022-11-21T08:44:54.703Z,1.40
2022-11-21T08:47:21.539Z,1.55
2022-11-21T08:49:48.451Z,1.80
2022-11-21T08:52:17.349Z,1.40
2022-11-21T08:54:44.888Z,1.30
2022-11-21T08:57:12.319Z,2.00
2022-11-21T08:59:39.105Z,1.70
2022-11-21T09:02:06.193Z,1.90
2022-11-21T09:04:33.125Z,1.38
2022-11-21T09:07:00.828Z,1.30
2022-11-21T09:09:28.016Z,1.20
2022-11-21T09:11:54.769Z,1.65
2022-11-21T09:14:40.223Z,1.48
2022-11-21T09:17:39.326Z,1.50
2022-11-21T09:20:06.649Z,1.98
2022-11-21T09:22:33.481Z,1.55
2022-11-21T09:25:00.240Z,1.40
2022-11-21T09:27:27.010Z,2.13
2022-11-21T09:29:54.340Z,1.48
2022-11-21T09:32:24.301Z,1.75
2022-11-21T09:34:51.166Z,1.83
2022-11-21T09:37:17.997Z,1.50
2022-11-21T09:39:44.799Z,1.90
2022-11-21T09:42:29.764Z,1.58
2022-11-21T09:45:06.489Z,1.63
2022-11-21T09:47:35.851Z,1.50
2022-11-21T09:50:04.561Z,1.88
2022-11-21T09:52:37.458Z,1.70
2022-11-21T09:55:24.622Z,2.55
2022-11-21T09:57:51.466Z,1.85
2022-11-21T10:00:24.817Z,2.00
2022-11-21T10:02:52.546Z,2.38
2022-11-21T10:05:25.196Z,2.03
2022-11-21T10:07:53.612Z,1.95
2022-11-21T10:10:20.434Z,1.90
2022-11-21T10:12:47.224Z,2.22
2022-11-21T10:15:32.200Z,2.15
2022-11-21T10:18:22.299Z,1.98
2022-11-21T10:21:07.853Z,1.85
2022-11-21T10:23:53.316Z,1.88
2022-11-21T10:26:43.511Z,2.00
2022-11-21T10:29:26.491Z,2.53
2022-11-21T10:31:56.070Z,2.10
2022-11-21T10:34:26.578Z,2.28
2022-11-21T10:36:56.275Z,2.35
2022-11-21T10:39:31.819Z,2.30
2022-11-21T10:42:01.353Z,1.92
2022-11-21T10:44:47.988Z,1.83
2022-11-21T10:47:27.643Z,1.63
2022-11-21T10:50:00.691Z,1.85
2022-11-21T10:52:28.802Z,1.60
2022-11-21T10:55:04.902Z,2.42
2022-11-21T10:57:34.230Z,2.00
2022-11-21T11:00:02.080Z,2.10
2022-11-21T11:02:28.932Z,1.63
2022-11-21T11:05:14.654Z,2.40
2022-11-21T11:07:41.719Z,2.42
2022-11-21T11:10:27.580Z,2.53
2022-11-21T11:13:38.787Z,1.90
2022-11-21T11:16:00.632Z,1.95
2022-11-21T11:18:27.655Z,2.10
2022-11-21T11:21:09.410Z,1.70
2022-11-21T11:23:36.197Z,1.70
2022-11-21T11:26:03.131Z,1.65
2022-11-21T11:28:36.811Z,1.75
2022-11-21T11:31:03.624Z,1.73
2022-11-21T11:33:33.345Z,1.50
2022-11-21T11:36:11.623Z,1.70
2022-11-21T11:38:38.438Z,1.52
2022-11-21T11:41:25.180Z,1.95
2022-11-21T11:44:36.992Z,2.00
2022-11-21T11:47:30.326Z,2.10
2022-11-21T11:50:17.364Z,2.60
2022-11-21T11:52:50.523Z,1.60
2022-11-21T11:55:20.400Z,1.92
2022-11-21T11:57:49.391Z,1.92
2022-11-21T12:00:22.177Z,1.52
2022-11-21T12:02:58.750Z,1.40
2022-11-21T12:05:26.309Z,2.28
2022-11-21T12:08:41.540Z,1.42
2022-11-21T12:11:33.044Z,1.35
2022-11-21T12:14:02.323Z,1.33
2022-11-21T12:16:29.961Z,1.75
2022-11-21T12:19:02.995Z,1.55
2022-11-21T12:21:29.976Z,1.60
2022-11-21T12:24:02.292Z,2.03
2022-11-21T12:26:49.838Z,1.70
2022-11-21T12:29:29.007Z,1.50
2022-11-21T12:32:15.042Z,1.60
2022-11-21T12:35:00.696Z,1.70
2022-11-21T12:37:48.259Z,1.90
2022-11-21T12:40:21.006Z,1.30
2022-11-21T12:42:51.080Z,1.73
2022-11-21T12:45:29.921Z,1.98
2022-11-21T12:48:29.614Z,1.10
2022-11-21T12:51:33.834Z,1.50
2022-11-21T12:54:22.069Z,1.40
2022-11-21T12:56:55.142Z,1.30
2022-11-21T12:59:23.262Z,1.00
2022-11-21T13:01:56.086Z,1.15
2022-11-21T13:04:26.789Z,1.02
2022-11-21T13:06:55.578Z,1.40
2022-11-21T13:09:23.382Z,0.93
2022-11-21T13:11:59.381Z,1.20
2022-11-21T13:14:32.314Z,0.80
2022-11-21T13:16:59.068Z,1.00
2022-11-21T13:19:29.205Z,1.15
2022-11-21T13:21:56.397Z,0.80
2022-11-21T13:24:58.619Z,0.70
2022-11-21T13:27:25.781Z,0.60
2022-11-21T13:30:16.998Z,0.98
2022-11-21T13:32:43.789Z,0.45
2022-11-21T13:35:16.560Z,0.70
2022-11-21T13:37:49.387Z,0.70
2022-11-21T13:40:31.417Z,0.70
2022-11-21T13:43:31.536Z,0.85
2022-11-21T13:45:52.867Z,0.50
2022-11-21T13:48:28.795Z,1.88
2022-11-21T13:50:59.119Z,0.93
2022-11-21T13:53:40.322Z,0.68
2022-11-21T13:56:26.433Z,0.70
2022-11-21T13:59:13.456Z,0.80
2022-11-21T14:01:49.406Z,0.80
2022-11-21T14:04:19.318Z,0.73
2022-11-21T14:06:46.437Z,1.20
2022-11-21T14:09:13.265Z,1.02
2022-11-21T14:12:00.313Z,1.10
2022-11-21T14:14:27.134Z,0.77
2022-11-21T14:16:58.713Z,0.80
2022-11-21T14:19:27.420Z,0.80
2022-11-21T14:21:55.538Z,1.05
2022-11-21T14:24:22.506Z,1.20
2022-11-21T14:26:50.965Z,0.85
2022-11-21T14:29:23.726Z,1.00
2022-11-21T14:31:51.406Z,0.80
2022-11-21T14:34:25.502Z,0.82
2022-11-21T14:36:52.549Z,0.88
2022-11-21T14:39:36.563Z,0.70
2022-11-21T14:42:05.751Z,0.63
2022-11-21T14:44:32.689Z,0.60
2022-11-21T14:47:09.226Z,0.80
2022-11-21T14:49:36.040Z,0.80
2022-11-21T14:52:06.475Z,0.75
2022-11-21T14:54:34.875Z,0.88
2022-11-21T14:57:07.473Z,0.85
2022-11-21T14:59:41.082Z,0.60
2022-11-21T15:02:12.448Z,0.70
2022-11-21T15:04:41.188Z,0.50
2022-11-21T15:07:17.622Z,0.85
2022-11-21T15:12:35.071Z,0.70
2022-11-21T15:15:04.573Z,0.40
2022-11-21T15:17:31.505Z,0.70
2022-11-21T15:20:11.275Z,1.10
2022-11-21T15:22:39.469Z,0.90
2022-11-21T15:25:08.138Z,1.15
2022-11-21T15:27:35.166Z,1.02
2022-11-21T15:30:04.725Z,1.20
2022-11-21T15:32:31.913Z,1.48
2022-11-21T15:34:58.731Z,0.88
2022-11-21T15:37:26.730Z,1.00
2022-11-21T15:39:53.730Z,1.00
2022-11-21T15:42:32.654Z,0.70
2022-11-21T15:45:01.182Z,0.77
2022-11-21T15:47:28.682Z,0.95
2022-11-21T15:49:55.600Z,0.80
2022-11-21T15:52:22.575Z,0.68
2022-11-21T15:54:49.435Z,0.70
2022-11-21T15:57:17.454Z,1.00
2022-11-21T15:59:44.958Z,1.13
2022-11-21T16:02:14.906Z,0.90
2022-11-21T16:04:42.163Z,1.67
2022-11-21T16:07:09.043Z,0.80
2022-11-21T16:09:36.486Z,0.30
2022-11-21T16:12:03.373Z,0.50
2022-11-21T16:14:30.218Z,0.30
2022-11-21T16:16:56.980Z,0.52
2022-11-21T16:19:23.742Z,0.60
2022-11-21T16:21:50.551Z,0.70
2022-11-21T16:24:17.423Z,0.70
2022-11-21T16:26:44.327Z,0.50
2022-11-21T16:29:11.190Z,0.63
2022-11-21T16:31:38.000Z,0.60
2022-11-21T16:34:04.829Z,0.70
2022-11-21T16:36:32.483Z,0.60
2022-11-21T16:39:07.791Z,0.70
2022-11-21T16:41:37.095Z,0.70
2022-11-21T16:44:04.032Z,0.47
2022-11-21T16:46:30.815Z,0.50
2022-11-21T16:49:02.055Z,0.50
2022-11-21T16:51:29.468Z,0.40
2022-11-21T16:53:56.935Z,0.22
2022-11-21T16:56:23.965Z,0.22
2022-11-21T16:58:50.797Z,0.40
2022-11-21T17:01:18.686Z,0.40
2022-11-21T17:03:47.512Z,0.40
2022-11-21T17:06:15.510Z,0.35
2022-11-21T17:08:42.488Z,0.57
2022-11-21T17:11:16.566Z,0.52
2022-11-21T17:13:44.069Z,0.30
2022-11-21T17:16:11.906Z,0.45
2022-11-21T17:18:39.310Z,0.40
2022-11-21T17:21:07.413Z,0.75
2022-11-21T17:23:34.444Z,0.70
2022-11-21T17:26:06.040Z,0.40
2022-11-21T17:31:00.044Z,0.50
2022-11-21T17:33:26.969Z,0.40
2022-11-21T17:35:53.770Z,0.70
2022-11-21T17:38:20.603Z,1.00
2022-11-21T17:40:47.427Z,0.80
2022-11-21T17:43:14.721Z,0.55
2022-11-21T17:45:41.565Z,0.50
2022-11-21T17:48:08.408Z,0.30
2022-11-21T17:50:35.174Z,0.88
2022-11-21T17:53:02.009Z,0.70
2022-11-21T17:55:28.823Z,0.75
2022-11-21T17:57:55.656Z,0.73
2022-11-21T18:00:22.409Z,0.77
2022-11-21T18:02:49.273Z,0.85
2022-11-21T18:05:16.166Z,0.45
2022-11-21T18:07:43.031Z,1.02
2022-11-21T18:10:40.691Z,0.77
2022-11-21T18:12:56.798Z,0.80
2022-11-21T18:15:23.633Z,0.77
2022-11-21T18:17:50.393Z,0.50
2022-11-21T18:20:18.071Z,0.70
2022-11-21T18:22:45.833Z,1.00
2022-11-21T18:25:12.600Z,0.77
2022-11-21T18:27:39.382Z,0.85
2022-11-21T18:30:06.487Z,1.23
2022-11-21T18:32:35.291Z,1.15
2022-11-21T18:35:04.518Z,1.20
2022-11-21T18:37:33.418Z,1.10
2022-11-21T18:40:00.201Z,1.38
2022-11-21T18:42:26.981Z,1.13
2022-11-21T18:44:56.598Z,0.82
2022-11-21T18:47:23.385Z,0.90
2022-11-21T18:49:54.188Z,1.15
2022-11-21T18:52:21.002Z,0.98
2022-11-21T18:54:47.845Z,0.80
2022-11-21T18:57:14.642Z,1.05
2022-11-21T18:59:41.471Z,1.45
2022-11-21T19:02:09.068Z,1.15
2022-11-21T19:04:36.040Z,0.88
2022-11-21T19:07:04.078Z,1.45
2022-11-21T19:09:32.668Z,1.35
2022-11-21T19:11:59.716Z,1.35
2022-11-21T19:14:26.982Z,1.25
2022-11-21T19:16:53.910Z,0.73
2022-11-21T19:19:36.397Z,1.20
2022-11-21T19:22:06.433Z,1.33
2022-11-21T19:24:33.496Z,0.80
2022-11-21T19:27:00.321Z,1.40
2022-11-21T19:29:27.261Z,0.95
2022-11-21T19:31:54.172Z,1.02
2022-11-21T19:34:21.051Z,0.90
2022-11-21T19:36:47.951Z,1.02
2022-11-21T19:39:14.803Z,1.52
2022-11-21T19:41:41.684Z,1.20
2022-11-21T19:44:08.928Z,1.02
2022-11-21T19:46:37.089Z,1.25
2022-11-21T19:49:04.272Z,1.35
2022-11-21T19:51:34.273Z,1.05
2022-11-21T19:54:04.965Z,1.30
2022-11-21T19:56:31.747Z,1.20
2022-11-21T19:58:59.175Z,0.90
2022-11-21T20:01:26.973Z,1.27
2022-11-21T20:03:55.190Z,1.70
2022-11-21T20:06:22.001Z,1.38
2022-11-21T20:08:54.034Z,1.27
2022-11-21T20:11:21.679Z,1.45
2022-11-21T20:13:49.171Z,0.93
2022-11-21T20:16:19.568Z,0.90
2022-11-21T20:18:46.536Z,1.25
2022-11-21T20:21:13.762Z,0.70
2022-11-21T20:23:40.880Z,1.20
2022-11-21T20:26:08.914Z,1.42
2022-11-21T20:28:36.660Z,0.85
2022-11-21T20:31:13.796Z,0.73
2022-11-21T20:33:44.677Z,1.13
2022-11-21T20:36:14.375Z,1.30
2022-11-21T20:38:41.891Z,1.08
2022-11-21T20:41:09.038Z,0.90
2022-11-21T20:44:10.587Z,1.00
2022-11-21T20:46:22.875Z,1.20
2022-11-21T20:48:49.806Z,1.15
2022-11-21T20:54:04.304Z,0.80
2022-11-21T20:56:34.916Z,0.63
2022-11-21T20:59:01.724Z,0.90
2022-11-21T21:01:28.869Z,0.93
2022-11-21T21:03:55.840Z,0.75
2022-11-21T21:06:24.227Z,1.10
2022-11-21T21:08:51.800Z,0.85
2022-11-21T21:11:50.411Z,0.90
2022-11-21T21:14:09.602Z,0.75
2022-11-21T21:16:36.468Z,0.90
2022-11-21T21:19:03.502Z,0.95
2022-11-21T21:21:33.274Z,0.65
2022-11-21T21:24:04.566Z,0.85
2022-11-21T21:26:41.548Z,0.45
2022-11-21T21:29:10.014Z,1.00
2022-11-21T21:31:36.780Z,1.10
2022-11-21T21:34:03.587Z,1.15
2022-11-21T21:36:32.137Z,1.08
2022-11-21T21:38:59.649Z,1.10
2022-11-21T21:41:30.763Z,0.80
2022-11-21T21:43:57.763Z,1.13
2022-11-21T21:46:25.790Z,0.88
2022-11-21T21:48:55.863Z,0.90
2022-11-21T21:51:30.442Z,1.17
2022-11-21T21:53:57.936Z,1.00
2022-11-21T21:56:25.764Z,1.08
2022-11-21T21:58:53.038Z,0.80
2022-11-21T22:01:21.225Z,1.42
2022-11-21T22:03:48.543Z,1.00
2022-11-21T22:06:16.920Z,0.85
2022-11-21T22:08:44.361Z,1.05
2022-11-21T22:11:12.460Z,0.98
2022-11-21T22:13:39.954Z,0.85
2022-11-21T22:16:09.406Z,0.88
2022-11-21T22:18:36.320Z,0.63
2022-11-21T22:21:12.687Z,0.60
2022-11-21T22:23:51.202Z,0.80
2022-11-21T22:26:26.269Z,0.82
2022-11-21T22:28:53.224Z,0.63
2022-11-21T22:31:20.218Z,0.90
2022-11-21T22:33:47.018Z,0.82
2022-11-21T22:36:15.229Z,1.08
2022-11-21T22:38:42.294Z,0.98
2022-11-21T22:41:12.193Z,0.90
2022-11-21T22:43:38.964Z,0.63
2022-11-21T22:46:06.238Z,0.80
2022-11-21T22:48:33.145Z,0.70
2022-11-21T22:50:59.931Z,0.88
2022-11-21T22:53:26.807Z,0.90
2022-11-21T22:56:04.608Z,1.17
2022-11-21T22:58:32.940Z,1.15
2022-11-21T23:01:07.204Z,1.10
2022-11-21T23:03:34.455Z,0.75
2022-11-21T23:06:21.624Z,1.05
2022-11-21T23:08:48.507Z,0.85
2022-11-21T23:11:17.431Z,0.90
2022-11-21T23:13:44.949Z,0.70
2022-11-21T23:16:12.230Z,0.90
2022-11-21T23:18:39.471Z,0.88
2022-11-21T23:21:06.749Z,0.75
2022-11-21T23:23:33.752Z,1.15
2022-11-21T23:26:00.860Z,0.90
2022-11-21T23:28:27.861Z,0.60
2022-11-21T23:30:54.919Z,0.68
2022-11-21T23:33:21.711Z,0.90
2022-11-21T23:35:48.562Z,0.80
2022-11-21T23:38:16.485Z,0.65
2022-11-21T23:40:46.686Z,0.60
2022-11-21T23:43:14.193Z,0.80
2022-11-21T23:45:41.169Z,0.85
2022-11-21T23:48:08.021Z,0.88
2022-11-21T23:50:34.822Z,0.70
2022-11-21T23:53:01.800Z,0.43
2022-11-21T23:55:28.592Z,1.15
2022-11-21T23:57:55.553Z,0.47
